sensor_id;sensor_type;location;lat;lon;timestamp;P1;durP1;ratioP1;P2;durP2;ratioP2
33786;SDS011;29742;51.540;9.358;2022-11-13T00:02:53;4.45;;;2.72;;
33786;SDS011;29742;51.540;9.358;2022-11-13T00:07:54;4.25;;;2.55;;
33786;SDS011;29742;51.540;9.358;2022-11-13T00:12:55;3.75;;;3.00;;
33786;SDS011;29742;51.540;9.358;2022-11-13T00:17:59;4.75;;;2.75;;
33786;SDS011;29742;51.540;9.358;2022-11-13T00:23:00;5.07;;;3.13;;
33786;SDS011;29742;51.540;9.358;2022-11-13T00:28:01;4.00;;;3.00;;
33786;SDS011;29742;51.540;9.358;2022-11-13T00:33:02;5.13;;;3.53;;
33786;SDS011;29742;51.540;9.358;2022-11-13T00:38:03;5.82;;;3.13;;
33786;SDS011;29742;51.540;9.358;2022-11-13T00:43:04;6.30;;;3.85;;
33786;SDS011;29742;51.540;9.358;2022-11-13T00:48:05;3.53;;;2.65;;
33786;SDS011;29742;51.540;9.358;2022-11-13T00:53:06;4.95;;;2.97;;
33786;SDS011;29742;51.540;9.358;2022-11-13T00:58:07;5.00;;;2.97;;
33786;SDS011;29742;51.540;9.358;2022-11-13T01:03:09;4.47;;;3.00;;
33786;SDS011;29742;51.540;9.358;2022-11-13T01:08:10;4.28;;;2.85;;
33786;SDS011;29742;51.540;9.358;2022-11-13T01:13:12;4.35;;;2.95;;
33786;SDS011;29742;51.540;9.358;2022-11-13T01:18:12;3.97;;;2.60;;
33786;SDS011;29742;51.540;9.358;2022-11-13T01:23:13;9.25;;;3.13;;
33786;SDS011;29742;51.540;9.358;2022-11-13T01:28:14;5.57;;;2.92;;
33786;SDS011;29742;51.540;9.358;2022-11-13T01:33:15;4.15;;;2.83;;
33786;SDS011;29742;51.540;9.358;2022-11-13T01:38:16;5.18;;;2.72;;
33786;SDS011;29742;51.540;9.358;2022-11-13T01:43:24;3.83;;;2.92;;
33786;SDS011;29742;51.540;9.358;2022-11-13T01:48:36;3.70;;;2.50;;
33786;SDS011;29742;51.540;9.358;2022-11-13T01:53:38;5.47;;;2.65;;
33786;SDS011;29742;51.540;9.358;2022-11-13T01:58:41;4.90;;;2.83;;
33786;SDS011;29742;51.540;9.358;2022-11-13T02:03:43;5.00;;;2.83;;
33786;SDS011;29742;51.540;9.358;2022-11-13T02:08:44;4.47;;;3.33;;
33786;SDS011;29742;51.540;9.358;2022-11-13T02:13:45;4.03;;;2.75;;
33786;SDS011;29742;51.540;9.358;2022-11-13T02:18:47;3.30;;;2.80;;
33786;SDS011;29742;51.540;9.358;2022-11-13T02:28:58;3.92;;;2.70;;
33786;SDS011;29742;51.540;9.358;2022-11-13T02:34:02;3.05;;;2.65;;
33786;SDS011;29742;51.540;9.358;2022-11-13T02:39:04;4.18;;;3.08;;
33786;SDS011;29742;51.540;9.358;2022-11-13T02:44:06;4.32;;;3.08;;
33786;SDS011;29742;51.540;9.358;2022-11-13T02:49:07;5.60;;;3.47;;
33786;SDS011;29742;51.540;9.358;2022-11-13T02:54:08;3.58;;;2.78;;
33786;SDS011;29742;51.540;9.358;2022-11-13T02:59:09;4.97;;;2.80;;
33786;SDS011;29742;51.540;9.358;2022-11-13T03:04:10;3.55;;;2.65;;
33786;SDS011;29742;51.540;9.358;2022-11-13T03:09:10;4.82;;;2.75;;
33786;SDS011;29742;51.540;9.358;2022-11-13T03:14:11;3.63;;;2.60;;
33786;SDS011;29742;51.540;9.358;2022-11-13T03:19:12;3.72;;;3.00;;
33786;SDS011;29742;51.540;9.358;2022-11-13T03:24:14;3.03;;;2.50;;
33786;SDS011;29742;51.540;9.358;2022-11-13T03:29:14;4.57;;;3.00;;
33786;SDS011;29742;51.540;9.358;2022-11-13T03:34:16;4.40;;;2.95;;
33786;SDS011;29742;51.540;9.358;2022-11-13T03:39:17;3.95;;;2.65;;
33786;SDS011;29742;51.540;9.358;2022-11-13T03:44:17;4.97;;;3.22;;
33786;SDS011;29742;51.540;9.358;2022-11-13T03:49:18;3.15;;;2.55;;
33786;SDS011;29742;51.540;9.358;2022-11-13T03:54:19;4.68;;;2.63;;
33786;SDS011;29742;51.540;9.358;2022-11-13T03:59:20;3.08;;;2.42;;
33786;SDS011;29742;51.540;9.358;2022-11-13T04:04:21;3.55;;;2.88;;
33786;SDS011;29742;51.540;9.358;2022-11-13T04:09:22;4.90;;;2.50;;
33786;SDS011;29742;51.540;9.358;2022-11-13T04:14:23;4.68;;;2.50;;
33786;SDS011;29742;51.540;9.358;2022-11-13T04:19:24;2.90;;;2.55;;
33786;SDS011;29742;51.540;9.358;2022-11-13T04:24:25;3.00;;;2.47;;
33786;SDS011;29742;51.540;9.358;2022-11-13T04:29:26;3.17;;;2.63;;
33786;SDS011;29742;51.540;9.358;2022-11-13T04:34:27;3.25;;;2.40;;
33786;SDS011;29742;51.540;9.358;2022-11-13T04:39:28;2.92;;;2.38;;
33786;SDS011;29742;51.540;9.358;2022-11-13T04:44:29;4.38;;;2.72;;
33786;SDS011;29742;51.540;9.358;2022-11-13T04:49:30;5.53;;;2.28;;
33786;SDS011;29742;51.540;9.358;2022-11-13T04:54:31;4.28;;;2.55;;
33786;SDS011;29742;51.540;9.358;2022-11-13T04:59:32;2.58;;;2.38;;
33786;SDS011;29742;51.540;9.358;2022-11-13T05:04:33;2.67;;;2.47;;
33786;SDS011;29742;51.540;9.358;2022-11-13T05:09:34;4.22;;;2.67;;
33786;SDS011;29742;51.540;9.358;2022-11-13T05:14:35;3.47;;;2.53;;
33786;SDS011;29742;51.540;9.358;2022-11-13T05:19:37;3.50;;;2.53;;
33786;SDS011;29742;51.540;9.358;2022-11-13T05:24:38;3.58;;;2.55;;
33786;SDS011;29742;51.540;9.358;2022-11-13T05:29:39;5.43;;;2.63;;
33786;SDS011;29742;51.540;9.358;2022-11-13T05:34:40;3.90;;;2.85;;
33786;SDS011;29742;51.540;9.358;2022-11-13T05:39:41;3.40;;;2.80;;
33786;SDS011;29742;51.540;9.358;2022-11-13T05:44:42;3.22;;;2.67;;
33786;SDS011;29742;51.540;9.358;2022-11-13T05:49:43;5.10;;;2.65;;
33786;SDS011;29742;51.540;9.358;2022-11-13T05:54:44;3.33;;;2.53;;
33786;SDS011;29742;51.540;9.358;2022-11-13T05:59:45;2.65;;;2.25;;
33786;SDS011;29742;51.540;9.358;2022-11-13T06:04:47;3.50;;;2.65;;
33786;SDS011;29742;51.540;9.358;2022-11-13T06:09:48;5.30;;;3.03;;
33786;SDS011;29742;51.540;9.358;2022-11-13T06:14:49;3.60;;;2.58;;
33786;SDS011;29742;51.540;9.358;2022-11-13T06:19:50;3.25;;;2.50;;
33786;SDS011;29742;51.540;9.358;2022-11-13T06:24:51;3.72;;;2.65;;
33786;SDS011;29742;51.540;9.358;2022-11-13T06:29:51;3.65;;;2.67;;
33786;SDS011;29742;51.540;9.358;2022-11-13T06:34:52;3.05;;;2.45;;
33786;SDS011;29742;51.540;9.358;2022-11-13T06:39:53;3.80;;;2.50;;
33786;SDS011;29742;51.540;9.358;2022-11-13T06:44:54;3.63;;;2.17;;
33786;SDS011;29742;51.540;9.358;2022-11-13T06:49:55;3.05;;;2.42;;
33786;SDS011;29742;51.540;9.358;2022-11-13T06:54:56;2.90;;;2.45;;
33786;SDS011;29742;51.540;9.358;2022-11-13T06:59:59;3.80;;;2.47;;
33786;SDS011;29742;51.540;9.358;2022-11-13T07:04:59;3.63;;;2.90;;
33786;SDS011;29742;51.540;9.358;2022-11-13T07:10:00;2.30;;;2.10;;
33786;SDS011;29742;51.540;9.358;2022-11-13T07:15:01;3.80;;;2.63;;
33786;SDS011;29742;51.540;9.358;2022-11-13T07:20:03;3.20;;;2.60;;
33786;SDS011;29742;51.540;9.358;2022-11-13T07:25:04;2.97;;;2.65;;
33786;SDS011;29742;51.540;9.358;2022-11-13T07:30:05;2.88;;;2.33;;
33786;SDS011;29742;51.540;9.358;2022-11-13T07:35:06;3.22;;;2.38;;
33786;SDS011;29742;51.540;9.358;2022-11-13T07:40:08;3.30;;;2.83;;
33786;SDS011;29742;51.540;9.358;2022-11-13T07:45:09;3.20;;;2.40;;
33786;SDS011;29742;51.540;9.358;2022-11-13T07:50:10;3.17;;;2.50;;
33786;SDS011;29742;51.540;9.358;2022-11-13T07:55:11;2.30;;;2.08;;
33786;SDS011;29742;51.540;9.358;2022-11-13T08:00:12;2.95;;;2.17;;
33786;SDS011;29742;51.540;9.358;2022-11-13T08:05:13;3.05;;;2.22;;
33786;SDS011;29742;51.540;9.358;2022-11-13T08:10:15;2.88;;;2.10;;
33786;SDS011;29742;51.540;9.358;2022-11-13T08:15:16;2.67;;;2.15;;
33786;SDS011;29742;51.540;9.358;2022-11-13T08:20:17;3.20;;;2.53;;
33786;SDS011;29742;51.540;9.358;2022-11-13T08:25:18;4.05;;;2.30;;
33786;SDS011;29742;51.540;9.358;2022-11-13T08:30:19;2.65;;;2.33;;
33786;SDS011;29742;51.540;9.358;2022-11-13T08:35:20;2.58;;;2.25;;
33786;SDS011;29742;51.540;9.358;2022-11-13T08:40:21;3.95;;;2.50;;
33786;SDS011;29742;51.540;9.358;2022-11-13T08:45:22;2.88;;;2.22;;
33786;SDS011;29742;51.540;9.358;2022-11-13T08:50:23;3.03;;;2.30;;
33786;SDS011;29742;51.540;9.358;2022-11-13T08:55:24;3.83;;;2.45;;
33786;SDS011;29742;51.540;9.358;2022-11-13T09:00:26;15.43;;;3.90;;
33786;SDS011;29742;51.540;9.358;2022-11-13T09:05:27;10.43;;;2.63;;
33786;SDS011;29742;51.540;9.358;2022-11-13T09:10:28;7.82;;;2.63;;
33786;SDS011;29742;51.540;9.358;2022-11-13T09:15:30;11.80;;;2.65;;
33786;SDS011;29742;51.540;9.358;2022-11-13T09:20:32;6.72;;;3.58;;
33786;SDS011;29742;51.540;9.358;2022-11-13T09:25:33;8.45;;;2.75;;
33786;SDS011;29742;51.540;9.358;2022-11-13T09:30:36;8.77;;;2.67;;
33786;SDS011;29742;51.540;9.358;2022-11-13T09:35:37;6.13;;;2.70;;
33786;SDS011;29742;51.540;9.358;2022-11-13T09:45:44;5.18;;;2.58;;
33786;SDS011;29742;51.540;9.358;2022-11-13T09:50:46;3.90;;;2.35;;
33786;SDS011;29742;51.540;9.358;2022-11-13T09:55:55;10.73;;;2.80;;
33786;SDS011;29742;51.540;9.358;2022-11-13T10:00:58;4.45;;;2.78;;
33786;SDS011;29742;51.540;9.358;2022-11-13T10:06:06;3.63;;;2.50;;
33786;SDS011;29742;51.540;9.358;2022-11-13T10:11:13;2.95;;;2.20;;
33786;SDS011;29742;51.540;9.358;2022-11-13T10:16:19;4.93;;;2.70;;
33786;SDS011;29742;51.540;9.358;2022-11-13T10:21:38;3.03;;;2.38;;
33786;SDS011;29742;51.540;9.358;2022-11-13T10:26:42;5.43;;;2.05;;
33786;SDS011;29742;51.540;9.358;2022-11-13T10:31:46;1.88;;;1.75;;
33786;SDS011;29742;51.540;9.358;2022-11-13T10:42:18;2.63;;;2.03;;
33786;SDS011;29742;51.540;9.358;2022-11-13T10:47:21;3.05;;;2.40;;
33786;SDS011;29742;51.540;9.358;2022-11-13T10:52:23;2.65;;;2.10;;
33786;SDS011;29742;51.540;9.358;2022-11-13T10:57:31;2.80;;;2.40;;
33786;SDS011;29742;51.540;9.358;2022-11-13T11:02:34;6.88;;;2.83;;
33786;SDS011;29742;51.540;9.358;2022-11-13T11:07:38;3.22;;;2.65;;
33786;SDS011;29742;51.540;9.358;2022-11-13T11:12:40;4.93;;;2.50;;
33786;SDS011;29742;51.540;9.358;2022-11-13T11:17:56;5.53;;;2.45;;
33786;SDS011;29742;51.540;9.358;2022-11-13T11:28:27;3.35;;;2.20;;
33786;SDS011;29742;51.540;9.358;2022-11-13T11:43:55;2.85;;;2.28;;
33786;SDS011;29742;51.540;9.358;2022-11-13T11:49:01;6.82;;;3.10;;
33786;SDS011;29742;51.540;9.358;2022-11-13T11:54:05;3.22;;;2.50;;
33786;SDS011;29742;51.540;9.358;2022-11-13T12:09:26;3.40;;;2.35;;
33786;SDS011;29742;51.540;9.358;2022-11-13T12:30:10;3.30;;;2.40;;
33786;SDS011;29742;51.540;9.358;2022-11-13T12:35:17;4.50;;;2.40;;
33786;SDS011;29742;51.540;9.358;2022-11-13T12:50:38;10.60;;;3.08;;
33786;SDS011;29742;51.540;9.358;2022-11-13T12:55:40;13.35;;;2.97;;
33786;SDS011;29742;51.540;9.358;2022-11-13T13:00:49;8.45;;;3.00;;
33786;SDS011;29742;51.540;9.358;2022-11-13T13:16:31;8.45;;;2.67;;
33786;SDS011;29742;51.540;9.358;2022-11-13T13:21:38;11.88;;;2.97;;
33786;SDS011;29742;51.540;9.358;2022-11-13T13:26:43;8.60;;;2.92;;
33786;SDS011;29742;51.540;9.358;2022-11-13T13:31:49;4.93;;;2.25;;
33786;SDS011;29742;51.540;9.358;2022-11-13T13:47:23;5.47;;;2.67;;
33786;SDS011;29742;51.540;9.358;2022-11-13T13:52:31;5.47;;;2.53;;
33786;SDS011;29742;51.540;9.358;2022-11-13T13:57:33;3.95;;;2.47;;
33786;SDS011;29742;51.540;9.358;2022-11-13T14:02:45;5.00;;;2.03;;
33786;SDS011;29742;51.540;9.358;2022-11-13T14:07:47;3.83;;;2.05;;
33786;SDS011;29742;51.540;9.358;2022-11-13T14:12:48;4.70;;;2.60;;
33786;SDS011;29742;51.540;9.358;2022-11-13T14:17:49;7.05;;;2.60;;
33786;SDS011;29742;51.540;9.358;2022-11-13T14:22:50;4.75;;;2.30;;
33786;SDS011;29742;51.540;9.358;2022-11-13T14:27:51;6.03;;;2.38;;
33786;SDS011;29742;51.540;9.358;2022-11-13T14:32:52;3.65;;;2.03;;
33786;SDS011;29742;51.540;9.358;2022-11-13T14:37:54;7.65;;;2.40;;
33786;SDS011;29742;51.540;9.358;2022-11-13T14:42:56;5.30;;;2.10;;
33786;SDS011;29742;51.540;9.358;2022-11-13T14:48:02;3.53;;;1.98;;
33786;SDS011;29742;51.540;9.358;2022-11-13T14:53:05;3.00;;;1.90;;
33786;SDS011;29742;51.540;9.358;2022-11-13T14:58:10;3.95;;;2.33;;
33786;SDS011;29742;51.540;9.358;2022-11-13T15:03:11;5.82;;;2.53;;
33786;SDS011;29742;51.540;9.358;2022-11-13T15:08:12;3.35;;;1.95;;
33786;SDS011;29742;51.540;9.358;2022-11-13T15:13:14;5.93;;;2.13;;
33786;SDS011;29742;51.540;9.358;2022-11-13T15:18:16;5.88;;;2.00;;
33786;SDS011;29742;51.540;9.358;2022-11-13T15:23:18;5.85;;;2.00;;
33786;SDS011;29742;51.540;9.358;2022-11-13T15:28:19;2.30;;;1.67;;
33786;SDS011;29742;51.540;9.358;2022-11-13T15:33:20;3.38;;;1.50;;
33786;SDS011;29742;51.540;9.358;2022-11-13T15:38:21;3.78;;;2.17;;
33786;SDS011;29742;51.540;9.358;2022-11-13T15:43:22;4.82;;;1.98;;
33786;SDS011;29742;51.540;9.358;2022-11-13T15:48:23;2.70;;;2.17;;
33786;SDS011;29742;51.540;9.358;2022-11-13T15:53:24;2.97;;;1.85;;
33786;SDS011;29742;51.540;9.358;2022-11-13T15:58:25;3.33;;;1.77;;
33786;SDS011;29742;51.540;9.358;2022-11-13T16:03:25;2.58;;;1.90;;
33786;SDS011;29742;51.540;9.358;2022-11-13T16:08:27;6.18;;;2.33;;
33786;SDS011;29742;51.540;9.358;2022-11-13T16:13:27;5.25;;;1.73;;
33786;SDS011;29742;51.540;9.358;2022-11-13T16:18:28;2.90;;;1.52;;
33786;SDS011;29742;51.540;9.358;2022-11-13T16:23:30;2.97;;;2.05;;
33786;SDS011;29742;51.540;9.358;2022-11-13T16:28:31;4.43;;;2.22;;
33786;SDS011;29742;51.540;9.358;2022-11-13T16:33:32;2.67;;;1.90;;
33786;SDS011;29742;51.540;9.358;2022-11-13T16:38:33;5.47;;;2.30;;
33786;SDS011;29742;51.540;9.358;2022-11-13T16:43:34;3.97;;;1.70;;
33786;SDS011;29742;51.540;9.358;2022-11-13T16:48:35;4.78;;;2.17;;
33786;SDS011;29742;51.540;9.358;2022-11-13T16:53:36;5.03;;;1.77;;
33786;SDS011;29742;51.540;9.358;2022-11-13T16:58:37;2.97;;;2.00;;
33786;SDS011;29742;51.540;9.358;2022-11-13T17:03:39;7.43;;;2.65;;
33786;SDS011;29742;51.540;9.358;2022-11-13T17:08:40;2.13;;;1.73;;
33786;SDS011;29742;51.540;9.358;2022-11-13T17:13:41;4.45;;;2.03;;
33786;SDS011;29742;51.540;9.358;2022-11-13T17:18:42;2.85;;;2.00;;
33786;SDS011;29742;51.540;9.358;2022-11-13T17:23:43;6.45;;;2.90;;
33786;SDS011;29742;51.540;9.358;2022-11-13T17:28:44;4.45;;;2.42;;
33786;SDS011;29742;51.540;9.358;2022-11-13T17:33:45;3.10;;;2.33;;
33786;SDS011;29742;51.540;9.358;2022-11-13T17:38:46;7.32;;;2.30;;
33786;SDS011;29742;51.540;9.358;2022-11-13T17:43:47;5.40;;;2.72;;
33786;SDS011;29742;51.540;9.358;2022-11-13T17:48:48;6.55;;;2.70;;
33786;SDS011;29742;51.540;9.358;2022-11-13T17:53:49;9.07;;;3.13;;
33786;SDS011;29742;51.540;9.358;2022-11-13T17:58:50;8.13;;;3.10;;
33786;SDS011;29742;51.540;9.358;2022-11-13T18:03:54;9.40;;;3.47;;
33786;SDS011;29742;51.540;9.358;2022-11-13T18:13:56;8.30;;;3.35;;
33786;SDS011;29742;51.540;9.358;2022-11-13T18:18:57;7.05;;;3.25;;
33786;SDS011;29742;51.540;9.358;2022-11-13T18:24:04;6.88;;;3.17;;
33786;SDS011;29742;51.540;9.358;2022-11-13T18:29:05;7.57;;;3.10;;
33786;SDS011;29742;51.540;9.358;2022-11-13T18:34:06;6.25;;;3.45;;
33786;SDS011;29742;51.540;9.358;2022-11-13T18:39:09;8.90;;;3.10;;
33786;SDS011;29742;51.540;9.358;2022-11-13T18:44:10;6.13;;;3.25;;
33786;SDS011;29742;51.540;9.358;2022-11-13T18:49:11;5.55;;;2.97;;
33786;SDS011;29742;51.540;9.358;2022-11-13T18:54:12;6.03;;;2.70;;
33786;SDS011;29742;51.540;9.358;2022-11-13T18:59:13;6.53;;;2.95;;
33786;SDS011;29742;51.540;9.358;2022-11-13T19:04:14;6.00;;;3.08;;
33786;SDS011;29742;51.540;9.358;2022-11-13T19:09:15;4.75;;;2.80;;
33786;SDS011;29742;51.540;9.358;2022-11-13T19:14:17;7.80;;;2.75;;
33786;SDS011;29742;51.540;9.358;2022-11-13T19:19:19;5.60;;;2.83;;
33786;SDS011;29742;51.540;9.358;2022-11-13T19:24:20;5.60;;;3.03;;
33786;SDS011;29742;51.540;9.358;2022-11-13T19:29:21;6.43;;;3.03;;
33786;SDS011;29742;51.540;9.358;2022-11-13T19:34:22;6.93;;;2.95;;
33786;SDS011;29742;51.540;9.358;2022-11-13T19:39:23;9.50;;;2.85;;
33786;SDS011;29742;51.540;9.358;2022-11-13T19:44:24;6.55;;;3.38;;
33786;SDS011;29742;51.540;9.358;2022-11-13T19:49:25;3.88;;;2.83;;
33786;SDS011;29742;51.540;9.358;2022-11-13T19:54:26;7.03;;;3.25;;
33786;SDS011;29742;51.540;9.358;2022-11-13T19:59:27;4.38;;;2.85;;
33786;SDS011;29742;51.540;9.358;2022-11-13T20:04:28;3.85;;;3.13;;
33786;SDS011;29742;51.540;9.358;2022-11-13T20:09:29;7.55;;;3.10;;
33786;SDS011;29742;51.540;9.358;2022-11-13T20:14:29;4.57;;;2.78;;
33786;SDS011;29742;51.540;9.358;2022-11-13T20:19:30;3.63;;;2.70;;
33786;SDS011;29742;51.540;9.358;2022-11-13T20:24:31;4.40;;;2.95;;
33786;SDS011;29742;51.540;9.358;2022-11-13T20:29:32;5.20;;;3.08;;
33786;SDS011;29742;51.540;9.358;2022-11-13T20:34:33;6.05;;;3.33;;
33786;SDS011;29742;51.540;9.358;2022-11-13T20:39:34;5.28;;;3.17;;
33786;SDS011;29742;51.540;9.358;2022-11-13T20:44:37;5.45;;;3.60;;
33786;SDS011;29742;51.540;9.358;2022-11-13T20:49:38;4.63;;;3.00;;
33786;SDS011;29742;51.540;9.358;2022-11-13T20:54:39;3.53;;;3.03;;
33786;SDS011;29742;51.540;9.358;2022-11-13T20:59:40;5.82;;;3.00;;
33786;SDS011;29742;51.540;9.358;2022-11-13T21:04:41;6.00;;;3.60;;
33786;SDS011;29742;51.540;9.358;2022-11-13T21:09:42;5.88;;;3.20;;
33786;SDS011;29742;51.540;9.358;2022-11-13T21:14:43;4.63;;;3.45;;
33786;SDS011;29742;51.540;9.358;2022-11-13T21:19:44;6.45;;;3.50;;
33786;SDS011;29742;51.540;9.358;2022-11-13T21:24:45;5.43;;;3.78;;
33786;SDS011;29742;51.540;9.358;2022-11-13T21:29:46;4.38;;;3.25;;
33786;SDS011;29742;51.540;9.358;2022-11-13T21:34:47;4.88;;;3.72;;
33786;SDS011;29742;51.540;9.358;2022-11-13T21:39:48;7.68;;;3.70;;
33786;SDS011;29742;51.540;9.358;2022-11-13T21:44:49;7.05;;;3.88;;
33786;SDS011;29742;51.540;9.358;2022-11-13T21:49:50;4.55;;;3.60;;
33786;SDS011;29742;51.540;9.358;2022-11-13T21:54:51;4.85;;;3.72;;
33786;SDS011;29742;51.540;9.358;2022-11-13T21:59:52;4.05;;;3.60;;
33786;SDS011;29742;51.540;9.358;2022-11-13T22:04:53;8.00;;;3.72;;
33786;SDS011;29742;51.540;9.358;2022-11-13T22:09:53;5.95;;;4.30;;
33786;SDS011;29742;51.540;9.358;2022-11-13T22:14:54;6.22;;;3.67;;
33786;SDS011;29742;51.540;9.358;2022-11-13T22:19:55;6.70;;;4.07;;
33786;SDS011;29742;51.540;9.358;2022-11-13T22:24:56;5.45;;;4.07;;
33786;SDS011;29742;51.540;9.358;2022-11-13T22:29:57;6.85;;;3.70;;
33786;SDS011;29742;51.540;9.358;2022-11-13T22:34:59;6.78;;;4.55;;
33786;SDS011;29742;51.540;9.358;2022-11-13T22:40:00;6.43;;;4.20;;
33786;SDS011;29742;51.540;9.358;2022-11-13T22:45:01;8.27;;;5.13;;
33786;SDS011;29742;51.540;9.358;2022-11-13T22:50:01;9.70;;;5.47;;
33786;SDS011;29742;51.540;9.358;2022-11-13T22:55:04;10.00;;;5.60;;
33786;SDS011;29742;51.540;9.358;2022-11-13T23:00:05;11.82;;;6.05;;
33786;SDS011;29742;51.540;9.358;2022-11-13T23:05:09;11.38;;;6.38;;
33786;SDS011;29742;51.540;9.358;2022-11-13T23:10:10;10.45;;;5.97;;
33786;SDS011;29742;51.540;9.358;2022-11-13T23:15:11;9.02;;;4.90;;
33786;SDS011;29742;51.540;9.358;2022-11-13T23:20:12;8.55;;;5.40;;
33786;SDS011;29742;51.540;9.358;2022-11-13T23:25:13;9.45;;;5.00;;
33786;SDS011;29742;51.540;9.358;2022-11-13T23:30:14;11.90;;;5.72;;
33786;SDS011;29742;51.540;9.358;2022-11-13T23:35:15;8.30;;;5.60;;
33786;SDS011;29742;51.540;9.358;2022-11-13T23:40:16;10.65;;;6.30;;
33786;SDS011;29742;51.540;9.358;2022-11-13T23:45:17;10.23;;;5.25;;
33786;SDS011;29742;51.540;9.358;2022-11-13T23:50:18;11.18;;;5.78;;
33786;SDS011;29742;51.540;9.358;2022-11-13T23:55:19;9.07;;;5.53;;
